^^
Meteo Knjazevac Station Historical Data
Daily Summary for January 18, 2021 Units:  English    Metric   Both
Daily Weekly Monthly Yearly Custom
  High: Low: Average:
Temperature: 65.7 °F 61.2 °F 63 °F
Dew Point: 62.6 °F 57.4 °F 60.6 °F
Humidity: 95% 86% 92%
Wind Speed: 7mph 0mph 2.3mph
Wind Gust: 14mph - -
Wind- - SW
Pressure: 30.03 in 29.96 in -
Precipitation: 0.01 in    
Historical Graphs
 
 
Tabular Data for January 18, 2021
Time Temperature Dew Point Pressure Wind Wind Speed Wind Gust Humidity Rainfall Rate (Hourly) solar Conditions
00:00 65.7 °F 62.6 °F 29.97 in SE 1 mph 7 mph 90% 0.00 in 0 W/m2
00:10 65.3 °F 62 °F 29.96 in South 1 mph 4 mph 89% 0.00 in 0 W/m2
00:20 64.9 °F 61.9 °F 29.96 in SSE 1 mph 3 mph 90% 0.00 in 0 W/m2
00:30 64.8 °F 61.8 °F 29.96 in Calm   3 mph 90% 0.00 in 0 W/m2
00:40 64.4 °F 61.7 °F 29.96 in Calm   2 mph 91% 0.00 in 0 W/m2
00:50 64.2 °F 61.5 °F 29.96 in WNW 1 mph 3 mph 91% 0.00 in 0 W/m2
01:00 64 °F 61.4 °F 29.96 in WNW 1 mph 3 mph 91% 0.00 in 0 W/m2
01:10 64 °F 61.4 °F 29.96 in West 2 mph 3 mph 91% 0.00 in 0 W/m2
01:20 63.9 °F 61.2 °F 29.96 in SW 1 mph 3 mph 91% 0.00 in 0 W/m2
01:30 63.7 °F 61 °F 29.96 in NW 1 mph 2 mph 91% 0.00 in 0 W/m2
01:40 63.5 °F 61.4 °F 29.96 in Calm   2 mph 93% 0.00 in 0 W/m2
01:50 63.3 °F 61.3 °F 29.96 in South 1 mph 3 mph 93% 0.00 in 0 W/m2
02:00 63.3 °F 61.3 °F 29.97 in Calm   3 mph 93% 0.00 in 0 W/m2
02:10 63.3 °F 61.3 °F 29.97 in Calm   3 mph 93% 0.00 in 0 W/m2
02:20 63.3 °F 61.6 °F 29.97 in NNW 1 mph 2 mph 94% 0.00 in 0 W/m2
02:30 63.1 °F 61.1 °F 29.97 in West 1 mph 3 mph 93% 0.00 in 0 W/m2
02:40 63.1 °F 61.4 °F 29.97 in Calm   3 mph 94% 0.00 in 0 W/m2
02:50 63.1 °F 61.4 °F 29.97 in ENE 1 mph 4 mph 94% 0.00 in 0 W/m2
03:00 63.1 °F 61.4 °F 29.97 in ESE 1 mph 2 mph 94% 0.00 in 0 W/m2
03:10 63.3 °F 61.6 °F 29.97 in Calm   2 mph 94% 0.00 in 0 W/m2
03:20 63.3 °F 61.6 °F 29.97 in SW 1 mph 3 mph 94% 0.00 in 0 W/m2
03:30 63.1 °F 61.4 °F 29.97 in Calm   3 mph 94% 0.00 in 0 W/m2
03:40 63.3 °F 61.6 °F 29.97 in Calm   4 mph 94% 0.00 in 0 W/m2
03:50 63.5 °F 62 °F 29.97 in North 2 mph 4 mph 95% 0.00 in 0 W/m2
04:00 63.8 °F 62 °F 29.97 in North 1 mph 3 mph 94% 0.00 in 0 W/m2
04:10 63.9 °F 62.1 °F 29.97 in West 3 mph 7 mph 94% 0.00 in 0 W/m2
04:20 63.9 °F 62.1 °F 29.98 in WSW 5 mph 8 mph 94% 0.00 in 0 W/m2
04:30 63.7 °F 61.6 °F 29.97 in WSW 1 mph 8 mph 93% 0.00 in 0 W/m2
04:40 63.7 °F 61.6 °F 29.97 in WSW 2 mph 7 mph 93% 0.00 in 0 W/m2
04:50 63.5 °F 61.7 °F 29.97 in WSW 3 mph 10 mph 94% 0.01 in 0 W/m2
05:00 63.3 °F 61.6 °F 29.97 in West 2 mph 8 mph 94% 0.00 in 0 W/m2
05:10 63.1 °F 61.4 °F 29.98 in West 2 mph 5 mph 94% 0.00 in 0 W/m2
05:20 63 °F 60.9 °F 29.98 in West 5 mph 9 mph 93% 0.00 in 0 W/m2
05:30 62.8 °F 59.8 °F 29.98 in West 7 mph 13 mph 90% 0.00 in 0 W/m2
05:40 62.6 °F 59.6 °F 29.98 in West 3 mph 14 mph 90% 0.00 in 0 W/m2
05:50 62.4 °F 59.4 °F 29.99 in West 5 mph 10 mph 90% 0.00 in 0 W/m2
06:00 62.4 °F 59.1 °F 29.99 in WSW 3 mph 8 mph 89% 0.00 in 0 W/m2
06:10 62.3 °F 59 °F 30.00 in WSW 5 mph 7 mph 89% 0.00 in 0 W/m2
06:20 62.2 °F 59 °F 30.00 in West 3 mph 8 mph 89% 0.00 in 1 W/m2
06:30 62.1 °F 58.8 °F 30.00 in West 6 mph 9 mph 89% 0.00 in 3 W/m2
06:40 61.9 °F 58.9 °F 30.00 in WSW 5 mph 7 mph 90% 0.00 in 6 W/m2
06:50 61.9 °F 59.2 °F 30.00 in SW 3 mph 8 mph 91% 0.00 in 10 W/m2
07:00 61.7 °F 59 °F 30.01 in WSW 5 mph 8 mph 91% 0.00 in 17 W/m2
07:10 61.5 °F 58.9 °F 30.01 in SW 5 mph 8 mph 91% 0.00 in 15 W/m2
07:20 61.5 °F 58.9 °F 30.01 in WSW 6 mph 8 mph 91% 0.00 in 15 W/m2
07:30 61.3 °F 58.7 °F 30.01 in WSW 3 mph 8 mph 91% 0.00 in 35 W/m2
07:40 61.3 °F 58.7 °F 30.01 in WSW 2 mph 9 mph 91% 0.00 in 30 W/m2
07:50 61.2 °F 58.2 °F 30.02 in SW 3 mph 5 mph 90% 0.00 in 53 W/m2
08:00 61.3 °F 58.7 °F 30.02 in SW 2 mph 6 mph 91% 0.00 in 101 W/m2
08:10 61.5 °F 58.2 °F 30.02 in WSW 3 mph 8 mph 89% 0.00 in 97 W/m2
08:20 61.7 °F 58.4 °F 30.03 in SW 5 mph 6 mph 89% 0.00 in 72 W/m2
08:30 61.6 °F 57.4 °F 30.03 in SW 7 mph 13 mph 86% 0.00 in 32 W/m2
Knjazevac, Serbia
Compliments of Weather Underground - 2 mb